sensor_id;sensor_type;location;lat;lon;timestamp;P1;durP1;ratioP1;P2;durP2;ratioP2
13374;SDS011;6756;51.354;15.754;2023-06-22T00:03:07;10.27;;;9.37;;
13374;SDS011;6756;51.354;15.754;2023-06-22T00:07:08;11.67;;;10.63;;
13374;SDS011;6756;51.354;15.754;2023-06-22T00:11:09;13.23;;;12.03;;
13374;SDS011;6756;51.354;15.754;2023-06-22T00:15:10;12.07;;;10.97;;
13374;SDS011;6756;51.354;15.754;2023-06-22T00:19:11;12.27;;;11.17;;
13374;SDS011;6756;51.354;15.754;2023-06-22T00:23:12;11.93;;;10.83;;
13374;SDS011;6756;51.354;15.754;2023-06-22T00:27:17;12.53;;;11.33;;
13374;SDS011;6756;51.354;15.754;2023-06-22T00:31:18;11.93;;;10.93;;
13374;SDS011;6756;51.354;15.754;2023-06-22T00:35:19;12.57;;;11.43;;
13374;SDS011;6756;51.354;15.754;2023-06-22T00:39:23;12.57;;;11.47;;
13374;SDS011;6756;51.354;15.754;2023-06-22T00:43:24;12.30;;;11.20;;
13374;SDS011;6756;51.354;15.754;2023-06-22T00:47:25;12.30;;;11.20;;
13374;SDS011;6756;51.354;15.754;2023-06-22T00:51:27;12.40;;;11.30;;
13374;SDS011;6756;51.354;15.754;2023-06-22T00:55:29;12.40;;;11.10;;
13374;SDS011;6756;51.354;15.754;2023-06-22T00:59:30;13.27;;;12.07;;
13374;SDS011;6756;51.354;15.754;2023-06-22T01:03:32;12.47;;;11.17;;
13374;SDS011;6756;51.354;15.754;2023-06-22T01:07:39;12.10;;;11.00;;
13374;SDS011;6756;51.354;15.754;2023-06-22T01:11:58;10.93;;;9.93;;
13374;SDS011;6756;51.354;15.754;2023-06-22T01:16:07;12.43;;;11.23;;
13374;SDS011;6756;51.354;15.754;2023-06-22T01:20:20;12.60;;;11.50;;
13374;SDS011;6756;51.354;15.754;2023-06-22T01:24:24;12.47;;;11.33;;
13374;SDS011;6756;51.354;15.754;2023-06-22T01:28:41;12.87;;;11.67;;
13374;SDS011;6756;51.354;15.754;2023-06-22T01:32:50;12.97;;;11.80;;
13374;SDS011;6756;51.354;15.754;2023-06-22T01:37:05;14.87;;;13.47;;
13374;SDS011;6756;51.354;15.754;2023-06-22T01:41:07;14.93;;;13.53;;
13374;SDS011;6756;51.354;15.754;2023-06-22T01:45:11;14.00;;;12.80;;
13374;SDS011;6756;51.354;15.754;2023-06-22T01:49:16;13.63;;;12.33;;
13374;SDS011;6756;51.354;15.754;2023-06-22T01:53:17;13.53;;;12.23;;
13374;SDS011;6756;51.354;15.754;2023-06-22T01:57:20;13.53;;;12.33;;
13374;SDS011;6756;51.354;15.754;2023-06-22T02:01:24;13.70;;;12.40;;
13374;SDS011;6756;51.354;15.754;2023-06-22T02:05:34;13.67;;;12.47;;
13374;SDS011;6756;51.354;15.754;2023-06-22T02:09:44;13.77;;;12.37;;
13374;SDS011;6756;51.354;15.754;2023-06-22T02:13:47;13.50;;;12.30;;
13374;SDS011;6756;51.354;15.754;2023-06-22T02:17:48;14.60;;;13.30;;
13374;SDS011;6756;51.354;15.754;2023-06-22T02:21:50;16.43;;;14.90;;
13374;SDS011;6756;51.354;15.754;2023-06-22T02:25:51;15.80;;;14.40;;
13374;SDS011;6756;51.354;15.754;2023-06-22T02:29:52;14.60;;;13.30;;
13374;SDS011;6756;51.354;15.754;2023-06-22T02:33:53;15.83;;;14.43;;
13374;SDS011;6756;51.354;15.754;2023-06-22T02:37:54;14.60;;;13.30;;
13374;SDS011;6756;51.354;15.754;2023-06-22T02:41:55;14.10;;;12.80;;
13374;SDS011;6756;51.354;15.754;2023-06-22T02:45:56;14.60;;;13.30;;
13374;SDS011;6756;51.354;15.754;2023-06-22T02:49:57;14.57;;;13.17;;
13374;SDS011;6756;51.354;15.754;2023-06-22T02:53:58;14.90;;;13.60;;
13374;SDS011;6756;51.354;15.754;2023-06-22T02:57:59;16.10;;;14.60;;
13374;SDS011;6756;51.354;15.754;2023-06-22T03:02:14;15.87;;;14.37;;
13374;SDS011;6756;51.354;15.754;2023-06-22T03:06:15;14.77;;;13.47;;
13374;SDS011;6756;51.354;15.754;2023-06-22T03:10:16;15.33;;;13.93;;
13374;SDS011;6756;51.354;15.754;2023-06-22T03:14:17;16.10;;;14.47;;
13374;SDS011;6756;51.354;15.754;2023-06-22T03:18:21;15.20;;;13.80;;
13374;SDS011;6756;51.354;15.754;2023-06-22T03:22:24;14.40;;;13.03;;
13374;SDS011;6756;51.354;15.754;2023-06-22T03:26:26;15.63;;;14.13;;
13374;SDS011;6756;51.354;15.754;2023-06-22T03:30:30;13.97;;;12.67;;
13374;SDS011;6756;51.354;15.754;2023-06-22T03:34:30;13.00;;;11.80;;
13374;SDS011;6756;51.354;15.754;2023-06-22T03:38:40;13.80;;;11.90;;
13374;SDS011;6756;51.354;15.754;2023-06-22T03:42:41;14.17;;;12.83;;
13374;SDS011;6756;51.354;15.754;2023-06-22T03:46:42;14.33;;;12.93;;
13374;SDS011;6756;51.354;15.754;2023-06-22T03:50:43;13.17;;;11.97;;
13374;SDS011;6756;51.354;15.754;2023-06-22T03:54:47;12.33;;;11.23;;
13374;SDS011;6756;51.354;15.754;2023-06-22T03:58:48;14.00;;;12.80;;
13374;SDS011;6756;51.354;15.754;2023-06-22T04:02:52;12.30;;;11.30;;
13374;SDS011;6756;51.354;15.754;2023-06-22T04:06:53;13.77;;;12.47;;
13374;SDS011;6756;51.354;15.754;2023-06-22T04:10:54;13.20;;;11.97;;
13374;SDS011;6756;51.354;15.754;2023-06-22T04:14:55;13.30;;;12.07;;
13374;SDS011;6756;51.354;15.754;2023-06-22T04:18:56;12.93;;;11.83;;
13374;SDS011;6756;51.354;15.754;2023-06-22T04:22:57;15.17;;;13.70;;
13374;SDS011;6756;51.354;15.754;2023-06-22T04:26:58;13.47;;;12.37;;
13374;SDS011;6756;51.354;15.754;2023-06-22T04:31:03;12.83;;;11.70;;
13374;SDS011;6756;51.354;15.754;2023-06-22T04:35:05;12.00;;;11.00;;
13374;SDS011;6756;51.354;15.754;2023-06-22T04:39:07;13.43;;;12.13;;
13374;SDS011;6756;51.354;15.754;2023-06-22T04:43:09;18.45;;;16.63;;
13374;SDS011;6756;51.354;15.754;2023-06-22T04:47:13;18.38;;;16.58;;
13374;SDS011;6756;51.354;15.754;2023-06-22T04:51:14;18.67;;;17.08;;
13374;SDS011;6756;51.354;15.754;2023-06-22T04:55:15;17.48;;;15.98;;
13374;SDS011;6756;51.354;15.754;2023-06-22T04:59:18;17.70;;;16.00;;
13374;SDS011;6756;51.354;15.754;2023-06-22T05:03:19;12.82;;;11.70;;
13374;SDS011;6756;51.354;15.754;2023-06-22T05:07:20;16.38;;;14.75;;
13374;SDS011;6756;51.354;15.754;2023-06-22T05:11:21;14.30;;;12.73;;
13374;SDS011;6756;51.354;15.754;2023-06-22T05:15:26;14.13;;;12.68;;
13374;SDS011;6756;51.354;15.754;2023-06-22T05:19:30;16.83;;;15.13;;
13374;SDS011;6756;51.354;15.754;2023-06-22T05:23:33;17.02;;;14.90;;
13374;SDS011;6756;51.354;15.754;2023-06-22T05:27:34;16.85;;;15.25;;
13374;SDS011;6756;51.354;15.754;2023-06-22T05:31:39;18.03;;;16.50;;
13374;SDS011;6756;51.354;15.754;2023-06-22T05:35:40;19.40;;;17.63;;
13374;SDS011;6756;51.354;15.754;2023-06-22T05:39:41;19.67;;;17.77;;
13374;SDS011;6756;51.354;15.754;2023-06-22T05:43:46;16.07;;;14.73;;
13374;SDS011;6756;51.354;15.754;2023-06-22T05:47:47;18.07;;;16.30;;
13374;SDS011;6756;51.354;15.754;2023-06-22T05:51:48;21.23;;;17.63;;
13374;SDS011;6756;51.354;15.754;2023-06-22T05:55:49;19.07;;;16.70;;
13374;SDS011;6756;51.354;15.754;2023-06-22T05:59:51;17.00;;;15.37;;
13374;SDS011;6756;51.354;15.754;2023-06-22T06:03:53;15.47;;;13.97;;
13374;SDS011;6756;51.354;15.754;2023-06-22T06:07:54;14.73;;;13.43;;
13374;SDS011;6756;51.354;15.754;2023-06-22T06:11:56;16.47;;;14.53;;
13374;SDS011;6756;51.354;15.754;2023-06-22T06:15:57;14.30;;;12.97;;
13374;SDS011;6756;51.354;15.754;2023-06-22T06:19:59;14.83;;;13.03;;
13374;SDS011;6756;51.354;15.754;2023-06-22T06:24:05;15.70;;;14.30;;
13374;SDS011;6756;51.354;15.754;2023-06-22T06:28:06;15.57;;;13.40;;
13374;SDS011;6756;51.354;15.754;2023-06-22T06:32:07;14.67;;;13.30;;
13374;SDS011;6756;51.354;15.754;2023-06-22T06:36:08;15.17;;;13.67;;
13374;SDS011;6756;51.354;15.754;2023-06-22T06:40:10;15.43;;;13.93;;
13374;SDS011;6756;51.354;15.754;2023-06-22T06:44:12;14.68;;;13.27;;
13374;SDS011;6756;51.354;15.754;2023-06-22T06:48:14;14.82;;;13.55;;
13374;SDS011;6756;51.354;15.754;2023-06-22T06:52:14;13.95;;;12.75;;
13374;SDS011;6756;51.354;15.754;2023-06-22T06:56:16;14.30;;;13.00;;
13374;SDS011;6756;51.354;15.754;2023-06-22T07:00:17;14.70;;;13.40;;
13374;SDS011;6756;51.354;15.754;2023-06-22T07:04:18;14.10;;;12.80;;
13374;SDS011;6756;51.354;15.754;2023-06-22T07:08:19;16.70;;;15.27;;
13374;SDS011;6756;51.354;15.754;2023-06-22T07:12:20;15.25;;;13.40;;
13374;SDS011;6756;51.354;15.754;2023-06-22T07:16:24;14.50;;;13.23;;
13374;SDS011;6756;51.354;15.754;2023-06-22T07:20:27;12.95;;;11.85;;
13374;SDS011;6756;51.354;15.754;2023-06-22T07:24:28;13.38;;;12.07;;
13374;SDS011;6756;51.354;15.754;2023-06-22T07:28:30;13.70;;;12.50;;
13374;SDS011;6756;51.354;15.754;2023-06-22T07:32:36;12.15;;;11.10;;
13374;SDS011;6756;51.354;15.754;2023-06-22T07:36:38;11.57;;;10.38;;
13374;SDS011;6756;51.354;15.754;2023-06-22T07:40:42;10.30;;;9.40;;
13374;SDS011;6756;51.354;15.754;2023-06-22T07:44:44;10.07;;;9.18;;
13374;SDS011;6756;51.354;15.754;2023-06-22T07:48:45;12.68;;;11.57;;
13374;SDS011;6756;51.354;15.754;2023-06-22T07:52:47;12.85;;;11.55;;
13374;SDS011;6756;51.354;15.754;2023-06-22T07:56:48;13.13;;;11.95;;
13374;SDS011;6756;51.354;15.754;2023-06-22T08:00:49;13.73;;;12.25;;
13374;SDS011;6756;51.354;15.754;2023-06-22T08:04:50;12.18;;;11.18;;
13374;SDS011;6756;51.354;15.754;2023-06-22T08:08:54;13.70;;;11.45;;
13374;SDS011;6756;51.354;15.754;2023-06-22T08:12:59;11.85;;;10.75;;
13374;SDS011;6756;51.354;15.754;2023-06-22T08:17:00;11.30;;;10.25;;
13374;SDS011;6756;51.354;15.754;2023-06-22T08:21:01;11.93;;;10.95;;
13374;SDS011;6756;51.354;15.754;2023-06-22T08:25:08;11.88;;;10.68;;
13374;SDS011;6756;51.354;15.754;2023-06-22T08:29:11;12.20;;;11.05;;
13374;SDS011;6756;51.354;15.754;2023-06-22T08:33:12;12.30;;;11.00;;
13374;SDS011;6756;51.354;15.754;2023-06-22T08:37:13;12.45;;;11.35;;
13374;SDS011;6756;51.354;15.754;2023-06-22T08:41:16;11.68;;;10.68;;
13374;SDS011;6756;51.354;15.754;2023-06-22T08:45:20;12.10;;;10.95;;
13374;SDS011;6756;51.354;15.754;2023-06-22T08:49:22;13.18;;;11.77;;
13374;SDS011;6756;51.354;15.754;2023-06-22T08:53:24;12.15;;;11.05;;
13374;SDS011;6756;51.354;15.754;2023-06-22T08:57:24;12.23;;;11.18;;
13374;SDS011;6756;51.354;15.754;2023-06-22T09:01:25;9.50;;;8.63;;
13374;SDS011;6756;51.354;15.754;2023-06-22T09:05:26;10.90;;;9.82;;
13374;SDS011;6756;51.354;15.754;2023-06-22T09:09:27;11.98;;;10.85;;
13374;SDS011;6756;51.354;15.754;2023-06-22T09:13:30;11.43;;;10.38;;
13374;SDS011;6756;51.354;15.754;2023-06-22T09:17:33;12.43;;;11.10;;
13374;SDS011;6756;51.354;15.754;2023-06-22T09:21:36;10.80;;;9.90;;
13374;SDS011;6756;51.354;15.754;2023-06-22T09:25:37;10.73;;;9.65;;
13374;SDS011;6756;51.354;15.754;2023-06-22T09:29:38;9.82;;;9.02;;
13374;SDS011;6756;51.354;15.754;2023-06-22T09:33:39;9.50;;;8.60;;
13374;SDS011;6756;51.354;15.754;2023-06-22T09:37:40;9.80;;;8.90;;
13374;SDS011;6756;51.354;15.754;2023-06-22T09:41:45;9.10;;;8.30;;
13374;SDS011;6756;51.354;15.754;2023-06-22T09:45:51;9.48;;;8.68;;
13374;SDS011;6756;51.354;15.754;2023-06-22T09:49:52;9.98;;;9.13;;
13374;SDS011;6756;51.354;15.754;2023-06-22T09:53:53;13.00;;;11.80;;
13374;SDS011;6756;51.354;15.754;2023-06-22T09:57:54;10.27;;;8.98;;
13374;SDS011;6756;51.354;15.754;2023-06-22T10:01:55;10.05;;;9.15;;
13374;SDS011;6756;51.354;15.754;2023-06-22T10:05:57;10.27;;;9.38;;
13374;SDS011;6756;51.354;15.754;2023-06-22T10:09:58;9.18;;;7.38;;
13374;SDS011;6756;51.354;15.754;2023-06-22T10:13:59;10.07;;;7.95;;
13374;SDS011;6756;51.354;15.754;2023-06-22T10:18:06;8.55;;;7.75;;
13374;SDS011;6756;51.354;15.754;2023-06-22T10:22:11;7.95;;;7.25;;
13374;SDS011;6756;51.354;15.754;2023-06-22T10:26:18;8.25;;;7.45;;
13374;SDS011;6756;51.354;15.754;2023-06-22T10:30:19;8.52;;;7.75;;
13374;SDS011;6756;51.354;15.754;2023-06-22T10:34:20;8.05;;;7.07;;
13374;SDS011;6756;51.354;15.754;2023-06-22T10:38:27;8.20;;;7.50;;
13374;SDS011;6756;51.354;15.754;2023-06-22T10:42:30;7.72;;;7.13;;
13374;SDS011;6756;51.354;15.754;2023-06-22T10:46:31;7.65;;;6.88;;
13374;SDS011;6756;51.354;15.754;2023-06-22T10:50:32;7.75;;;7.05;;
13374;SDS011;6756;51.354;15.754;2023-06-22T10:54:33;7.93;;;6.68;;
13374;SDS011;6756;51.354;15.754;2023-06-22T10:58:35;8.68;;;7.43;;
13374;SDS011;6756;51.354;15.754;2023-06-22T11:02:36;7.18;;;6.47;;
13374;SDS011;6756;51.354;15.754;2023-06-22T11:06:37;7.75;;;7.15;;
13374;SDS011;6756;51.354;15.754;2023-06-22T11:10:39;8.65;;;7.75;;
13374;SDS011;6756;51.354;15.754;2023-06-22T11:14:39;7.40;;;6.75;;
13374;SDS011;6756;51.354;15.754;2023-06-22T11:18:40;8.07;;;7.30;;
13374;SDS011;6756;51.354;15.754;2023-06-22T11:22:43;8.43;;;7.63;;
13374;SDS011;6756;51.354;15.754;2023-06-22T11:26:47;7.82;;;7.13;;
13374;SDS011;6756;51.354;15.754;2023-06-22T11:30:48;6.97;;;6.28;;
13374;SDS011;6756;51.354;15.754;2023-06-22T11:34:49;7.30;;;6.45;;
13374;SDS011;6756;51.354;15.754;2023-06-22T11:38:50;6.82;;;6.22;;
13374;SDS011;6756;51.354;15.754;2023-06-22T11:42:51;7.28;;;6.68;;
13374;SDS011;6756;51.354;15.754;2023-06-22T11:46:52;6.13;;;5.55;;
13374;SDS011;6756;51.354;15.754;2023-06-22T11:50:53;6.13;;;5.63;;
13374;SDS011;6756;51.354;15.754;2023-06-22T11:54:55;6.78;;;5.95;;
13374;SDS011;6756;51.354;15.754;2023-06-22T11:58:56;6.40;;;5.80;;
13374;SDS011;6756;51.354;15.754;2023-06-22T12:02:59;7.05;;;6.45;;
13374;SDS011;6756;51.354;15.754;2023-06-22T12:07:00;6.30;;;5.80;;
13374;SDS011;6756;51.354;15.754;2023-06-22T12:11:02;6.78;;;6.18;;
13374;SDS011;6756;51.354;15.754;2023-06-22T12:15:03;6.28;;;5.68;;
13374;SDS011;6756;51.354;15.754;2023-06-22T12:19:04;6.75;;;6.07;;
13374;SDS011;6756;51.354;15.754;2023-06-22T12:23:05;7.70;;;6.18;;
13374;SDS011;6756;51.354;15.754;2023-06-22T12:27:06;6.60;;;6.10;;
13374;SDS011;6756;51.354;15.754;2023-06-22T12:31:07;6.63;;;5.90;;
13374;SDS011;6756;51.354;15.754;2023-06-22T12:35:08;6.43;;;5.90;;
13374;SDS011;6756;51.354;15.754;2023-06-22T12:39:14;7.80;;;5.60;;
13374;SDS011;6756;51.354;15.754;2023-06-22T12:43:15;6.93;;;6.22;;
13374;SDS011;6756;51.354;15.754;2023-06-22T12:47:16;6.43;;;5.82;;
13374;SDS011;6756;51.354;15.754;2023-06-22T12:51:23;6.82;;;6.22;;
13374;SDS011;6756;51.354;15.754;2023-06-22T12:55:24;7.28;;;6.57;;
13374;SDS011;6756;51.354;15.754;2023-06-22T12:59:25;6.85;;;6.15;;
13374;SDS011;6756;51.354;15.754;2023-06-22T13:03:26;6.57;;;5.97;;
13374;SDS011;6756;51.354;15.754;2023-06-22T13:07:27;6.30;;;5.80;;
13374;SDS011;6756;51.354;15.754;2023-06-22T13:11:28;6.30;;;5.80;;
13374;SDS011;6756;51.354;15.754;2023-06-22T13:15:29;6.38;;;5.78;;
13374;SDS011;6756;51.354;15.754;2023-06-22T13:19:34;6.88;;;6.15;;
13374;SDS011;6756;51.354;15.754;2023-06-22T13:23:38;6.22;;;5.63;;
13374;SDS011;6756;51.354;15.754;2023-06-22T13:27:39;6.53;;;5.85;;
13374;SDS011;6756;51.354;15.754;2023-06-22T13:31:42;6.22;;;5.72;;
13374;SDS011;6756;51.354;15.754;2023-06-22T13:35:43;6.00;;;5.50;;
13374;SDS011;6756;51.354;15.754;2023-06-22T13:39:44;7.35;;;6.63;;
13374;SDS011;6756;51.354;15.754;2023-06-22T13:43:45;6.72;;;6.13;;
13374;SDS011;6756;51.354;15.754;2023-06-22T13:47:46;7.72;;;7.03;;
13374;SDS011;6756;51.354;15.754;2023-06-22T13:51:48;6.32;;;5.82;;
13374;SDS011;6756;51.354;15.754;2023-06-22T13:55:49;6.80;;;6.20;;
13374;SDS011;6756;51.354;15.754;2023-06-22T13:59:53;6.35;;;5.85;;
13374;SDS011;6756;51.354;15.754;2023-06-22T14:03:54;6.13;;;5.60;;
13374;SDS011;6756;51.354;15.754;2023-06-22T14:07:55;6.28;;;5.78;;
13374;SDS011;6756;51.354;15.754;2023-06-22T14:12:02;8.38;;;6.57;;
13374;SDS011;6756;51.354;15.754;2023-06-22T14:16:07;6.82;;;6.10;;
13374;SDS011;6756;51.354;15.754;2023-06-22T14:20:08;6.10;;;5.60;;
13374;SDS011;6756;51.354;15.754;2023-06-22T14:24:09;7.07;;;6.38;;
13374;SDS011;6756;51.354;15.754;2023-06-22T14:28:10;7.60;;;6.00;;
13374;SDS011;6756;51.354;15.754;2023-06-22T14:32:11;6.35;;;5.75;;
13374;SDS011;6756;51.354;15.754;2023-06-22T14:36:13;7.03;;;6.32;;
13374;SDS011;6756;51.354;15.754;2023-06-22T14:40:14;6.63;;;6.07;;
13374;SDS011;6756;51.354;15.754;2023-06-22T14:44:15;6.85;;;6.30;;
13374;SDS011;6756;51.354;15.754;2023-06-22T14:48:21;7.30;;;5.85;;
13374;SDS011;6756;51.354;15.754;2023-06-22T14:52:23;6.97;;;6.28;;
13374;SDS011;6756;51.354;15.754;2023-06-22T14:56:25;6.97;;;6.13;;
13374;SDS011;6756;51.354;15.754;2023-06-22T15:00:26;6.03;;;5.50;;
13374;SDS011;6756;51.354;15.754;2023-06-22T15:04:27;6.75;;;6.15;;
13374;SDS011;6756;51.354;15.754;2023-06-22T15:08:36;7.38;;;5.80;;
13374;SDS011;6756;51.354;15.754;2023-06-22T15:12:40;6.88;;;6.28;;
13374;SDS011;6756;51.354;15.754;2023-06-22T15:16:41;6.68;;;6.00;;
13374;SDS011;6756;51.354;15.754;2023-06-22T15:20:52;6.50;;;5.90;;
13374;SDS011;6756;51.354;15.754;2023-06-22T15:24:53;5.90;;;5.40;;
13374;SDS011;6756;51.354;15.754;2023-06-22T15:28:58;7.72;;;6.50;;
13374;SDS011;6756;51.354;15.754;2023-06-22T15:32:59;6.88;;;6.18;;
13374;SDS011;6756;51.354;15.754;2023-06-22T15:37:01;5.88;;;5.28;;
13374;SDS011;6756;51.354;15.754;2023-06-22T15:41:03;6.00;;;5.50;;
13374;SDS011;6756;51.354;15.754;2023-06-22T15:45:04;6.30;;;5.57;;
13374;SDS011;6756;51.354;15.754;2023-06-22T15:49:05;6.88;;;6.28;;
13374;SDS011;6756;51.354;15.754;2023-06-22T15:53:08;6.70;;;5.97;;
13374;SDS011;6756;51.354;15.754;2023-06-22T15:57:09;7.00;;;6.30;;
13374;SDS011;6756;51.354;15.754;2023-06-22T16:01:13;8.27;;;7.47;;
13374;SDS011;6756;51.354;15.754;2023-06-22T16:05:14;7.50;;;6.80;;
13374;SDS011;6756;51.354;15.754;2023-06-22T16:09:15;6.25;;;5.72;;
13374;SDS011;6756;51.354;15.754;2023-06-22T16:13:16;8.82;;;6.15;;
13374;SDS011;6756;51.354;15.754;2023-06-22T16:17:17;7.90;;;7.10;;
13374;SDS011;6756;51.354;15.754;2023-06-22T16:21:18;8.07;;;7.28;;
13374;SDS011;6756;51.354;15.754;2023-06-22T16:25:19;8.65;;;7.40;;
13374;SDS011;6756;51.354;15.754;2023-06-22T16:29:20;7.05;;;6.43;;
13374;SDS011;6756;51.354;15.754;2023-06-22T16:33:21;7.55;;;5.88;;
13374;SDS011;6756;51.354;15.754;2023-06-22T16:37:22;5.95;;;5.45;;
13374;SDS011;6756;51.354;15.754;2023-06-22T16:41:23;6.38;;;5.78;;
13374;SDS011;6756;51.354;15.754;2023-06-22T16:45:25;6.53;;;5.93;;
13374;SDS011;6756;51.354;15.754;2023-06-22T16:49:26;6.70;;;6.00;;
13374;SDS011;6756;51.354;15.754;2023-06-22T16:53:28;7.25;;;6.57;;
13374;SDS011;6756;51.354;15.754;2023-06-22T16:57:30;7.03;;;6.32;;
13374;SDS011;6756;51.354;15.754;2023-06-22T17:01:31;6.90;;;6.20;;
13374;SDS011;6756;51.354;15.754;2023-06-22T17:05:34;7.10;;;6.40;;
13374;SDS011;6756;51.354;15.754;2023-06-22T17:09:40;6.93;;;5.90;;
13374;SDS011;6756;51.354;15.754;2023-06-22T17:13:46;6.18;;;5.57;;
13374;SDS011;6756;51.354;15.754;2023-06-22T17:17:50;6.60;;;5.60;;
13374;SDS011;6756;51.354;15.754;2023-06-22T17:21:52;6.38;;;5.78;;
13374;SDS011;6756;51.354;15.754;2023-06-22T17:25:53;8.98;;;5.72;;
13374;SDS011;6756;51.354;15.754;2023-06-22T17:30:03;5.88;;;4.97;;
13374;SDS011;6756;51.354;15.754;2023-06-22T17:34:08;6.93;;;5.30;;
13374;SDS011;6756;51.354;15.754;2023-06-22T17:38:10;6.30;;;5.80;;
13374;SDS011;6756;51.354;15.754;2023-06-22T17:42:22;6.00;;;5.50;;
13374;SDS011;6756;51.354;15.754;2023-06-22T17:46:23;6.03;;;5.43;;
13374;SDS011;6756;51.354;15.754;2023-06-22T17:50:25;6.68;;;6.07;;
13374;SDS011;6756;51.354;15.754;2023-06-22T17:54:30;7.03;;;6.40;;
13374;SDS011;6756;51.354;15.754;2023-06-22T17:58:31;5.63;;;5.10;;
13374;SDS011;6756;51.354;15.754;2023-06-22T18:02:35;8.68;;;5.97;;
13374;SDS011;6756;51.354;15.754;2023-06-22T18:06:43;6.30;;;5.70;;
13374;SDS011;6756;51.354;15.754;2023-06-22T18:10:46;5.78;;;4.90;;
13374;SDS011;6756;51.354;15.754;2023-06-22T18:14:51;6.43;;;5.82;;
13374;SDS011;6756;51.354;15.754;2023-06-22T18:18:53;6.35;;;5.75;;
13374;SDS011;6756;51.354;15.754;2023-06-22T18:22:56;5.63;;;4.78;;
13374;SDS011;6756;51.354;15.754;2023-06-22T18:26:58;9.65;;;7.95;;
13374;SDS011;6756;51.354;15.754;2023-06-22T18:31:02;6.88;;;6.18;;
13374;SDS011;6756;51.354;15.754;2023-06-22T18:35:03;7.60;;;5.40;;
13374;SDS011;6756;51.354;15.754;2023-06-22T18:39:05;6.72;;;5.38;;
13374;SDS011;6756;51.354;15.754;2023-06-22T18:43:08;5.97;;;4.90;;
13374;SDS011;6756;51.354;15.754;2023-06-22T18:47:09;5.73;;;4.77;;
13374;SDS011;6756;51.354;15.754;2023-06-22T18:51:13;8.17;;;6.57;;
13374;SDS011;6756;51.354;15.754;2023-06-22T18:55:16;7.00;;;5.57;;
13374;SDS011;6756;51.354;15.754;2023-06-22T18:59:17;11.40;;;5.90;;
13374;SDS011;6756;51.354;15.754;2023-06-22T19:03:37;7.90;;;6.33;;
13374;SDS011;6756;51.354;15.754;2023-06-22T19:16:19;9.83;;;6.57;;
13374;SDS011;6756;51.354;15.754;2023-06-22T19:20:33;8.47;;;6.40;;
13374;SDS011;6756;51.354;15.754;2023-06-22T19:24:50;12.27;;;8.33;;
13374;SDS011;6756;51.354;15.754;2023-06-22T19:28:52;12.90;;;9.80;;
13374;SDS011;6756;51.354;15.754;2023-06-22T19:32:58;8.80;;;7.17;;
13374;SDS011;6756;51.354;15.754;2023-06-22T19:36:59;12.23;;;8.67;;
13374;SDS011;6756;51.354;15.754;2023-06-22T19:41:00;14.00;;;10.63;;
13374;SDS011;6756;51.354;15.754;2023-06-22T19:45:02;11.63;;;7.03;;
13374;SDS011;6756;51.354;15.754;2023-06-22T19:49:03;16.90;;;10.70;;
13374;SDS011;6756;51.354;15.754;2023-06-22T19:53:08;9.13;;;8.03;;
13374;SDS011;6756;51.354;15.754;2023-06-22T19:57:16;9.80;;;8.63;;
13374;SDS011;6756;51.354;15.754;2023-06-22T20:01:17;11.43;;;8.10;;
13374;SDS011;6756;51.354;15.754;2023-06-22T20:05:19;7.80;;;6.37;;
13374;SDS011;6756;51.354;15.754;2023-06-22T20:09:22;5.47;;;4.97;;
13374;SDS011;6756;51.354;15.754;2023-06-22T20:13:23;7.60;;;4.87;;
13374;SDS011;6756;51.354;15.754;2023-06-22T20:17:25;6.20;;;5.60;;
13374;SDS011;6756;51.354;15.754;2023-06-22T20:21:26;5.40;;;4.90;;
13374;SDS011;6756;51.354;15.754;2023-06-22T20:25:29;6.83;;;4.83;;
13374;SDS011;6756;51.354;15.754;2023-06-22T20:29:32;7.40;;;6.70;;
13374;SDS011;6756;51.354;15.754;2023-06-22T20:33:34;5.10;;;4.33;;
13374;SDS011;6756;51.354;15.754;2023-06-22T20:37:35;6.00;;;4.10;;
13374;SDS011;6756;51.354;15.754;2023-06-22T20:41:36;5.03;;;4.10;;
13374;SDS011;6756;51.354;15.754;2023-06-22T20:45:38;4.43;;;3.97;;
13374;SDS011;6756;51.354;15.754;2023-06-22T20:49:39;4.63;;;3.67;;
13374;SDS011;6756;51.354;15.754;2023-06-22T20:53:40;3.77;;;3.33;;
13374;SDS011;6756;51.354;15.754;2023-06-22T20:57:41;4.17;;;3.73;;
13374;SDS011;6756;51.354;15.754;2023-06-22T21:01:43;4.70;;;3.90;;
13374;SDS011;6756;51.354;15.754;2023-06-22T21:05:46;5.10;;;4.40;;
13374;SDS011;6756;51.354;15.754;2023-06-22T21:09:48;6.03;;;5.17;;
13374;SDS011;6756;51.354;15.754;2023-06-22T21:13:49;4.67;;;4.10;;
13374;SDS011;6756;51.354;15.754;2023-06-22T21:17:50;5.57;;;3.53;;
13374;SDS011;6756;51.354;15.754;2023-06-22T21:21:51;5.10;;;3.70;;
13374;SDS011;6756;51.354;15.754;2023-06-22T21:25:52;5.37;;;3.47;;
13374;SDS011;6756;51.354;15.754;2023-06-22T21:29:53;4.47;;;3.53;;
13374;SDS011;6756;51.354;15.754;2023-06-22T21:33:57;4.27;;;3.73;;
13374;SDS011;6756;51.354;15.754;2023-06-22T21:37:58;4.83;;;3.73;;
13374;SDS011;6756;51.354;15.754;2023-06-22T21:41:59;3.80;;;3.37;;
13374;SDS011;6756;51.354;15.754;2023-06-22T21:46:00;3.53;;;3.23;;
13374;SDS011;6756;51.354;15.754;2023-06-22T21:50:02;4.40;;;3.20;;
13374;SDS011;6756;51.354;15.754;2023-06-22T21:54:07;4.13;;;3.20;;
13374;SDS011;6756;51.354;15.754;2023-06-22T21:58:09;4.50;;;3.77;;
13374;SDS011;6756;51.354;15.754;2023-06-22T22:02:10;4.93;;;3.60;;
13374;SDS011;6756;51.354;15.754;2023-06-22T22:06:11;3.80;;;3.50;;
13374;SDS011;6756;51.354;15.754;2023-06-22T22:10:13;5.73;;;3.60;;
13374;SDS011;6756;51.354;15.754;2023-06-22T22:14:14;4.40;;;3.47;;
13374;SDS011;6756;51.354;15.754;2023-06-22T22:18:17;3.93;;;3.40;;
13374;SDS011;6756;51.354;15.754;2023-06-22T22:22:18;4.83;;;3.47;;
13374;SDS011;6756;51.354;15.754;2023-06-22T22:26:19;4.73;;;4.10;;
13374;SDS011;6756;51.354;15.754;2023-06-22T22:30:20;5.80;;;4.97;;
13374;SDS011;6756;51.354;15.754;2023-06-22T22:34:21;5.40;;;3.60;;
13374;SDS011;6756;51.354;15.754;2023-06-22T22:43:01;5.13;;;3.80;;
13374;SDS011;6756;51.354;15.754;2023-06-22T22:47:02;5.50;;;3.83;;
13374;SDS011;6756;51.354;15.754;2023-06-22T22:51:03;3.87;;;3.47;;
13374;SDS011;6756;51.354;15.754;2023-06-22T22:55:04;4.77;;;3.97;;
13374;SDS011;6756;51.354;15.754;2023-06-22T22:59:09;5.10;;;4.13;;
13374;SDS011;6756;51.354;15.754;2023-06-22T23:03:12;4.40;;;4.00;;
13374;SDS011;6756;51.354;15.754;2023-06-22T23:07:13;4.30;;;3.90;;
13374;SDS011;6756;51.354;15.754;2023-06-22T23:11:14;4.13;;;3.63;;
13374;SDS011;6756;51.354;15.754;2023-06-22T23:15:15;5.53;;;4.20;;
13374;SDS011;6756;51.354;15.754;2023-06-22T23:19:16;3.90;;;3.57;;
13374;SDS011;6756;51.354;15.754;2023-06-22T23:23:17;4.93;;;4.27;;
13374;SDS011;6756;51.354;15.754;2023-06-22T23:27:19;5.07;;;4.30;;
13374;SDS011;6756;51.354;15.754;2023-06-22T23:31:21;5.33;;;4.27;;
13374;SDS011;6756;51.354;15.754;2023-06-22T23:35:24;4.93;;;4.27;;
13374;SDS011;6756;51.354;15.754;2023-06-22T23:39:26;4.97;;;3.93;;
13374;SDS011;6756;51.354;15.754;2023-06-22T23:43:27;5.83;;;4.30;;
13374;SDS011;6756;51.354;15.754;2023-06-22T23:47:28;6.83;;;4.17;;
13374;SDS011;6756;51.354;15.754;2023-06-22T23:51:29;5.53;;;4.97;;
13374;SDS011;6756;51.354;15.754;2023-06-22T23:55:30;4.93;;;4.00;;
13374;SDS011;6756;51.354;15.754;2023-06-22T23:59:31;4.80;;;4.30;;
